CYYD

Smithers Airport

Smithers, , Canada
METAR CYYD 250000Z 33009G17KT 25SM SCT060 14/M01 A3021 RMK CU3 SLP241
Observed Flight Rules
Apr-25 @ 00:00 UTC (40 minutes ago) Visual Flight Rules
Wind Visibility Clouds
330° at 9 knots
 Gusting to 17 knots
25 miles
  • Scattered at 6,000' AGL
Temperatures Readings
Current 14°C / 57°F
Dewpoint -1°C / 30°F
Humidity 36%
Altimeter 30.21" Hg
Pressure 1024.1 hPa
Elevation 523
METAR CYYD 250000Z 33009G17KT 25SM SCT060 14/M01 A3021 RMK CU3 SLP241
Observed Flight Rules
Apr-25 @ 00:00 UTC
(40 minutes ago)
VFR
Wind Visibility
330° at 9 knots
 Gusting to 17 knots
25 miles
Clouds
  • Scattered at 6,000' AGL
Temperature Dewpoint
14°C / 57°F -1°C / 30°F
Humidity Altimeter Pressure
36% 30.21" Hg 1024.1 hPa